sensor_id;sensor_type;location;lat;lon;timestamp;pressure;altitude;pressure_sealevel;temperature;humidity
57442;BME280;43284;47.042;15.498;2023-02-01T00:01:37;97319.72;;;-3.17;85.51
57442;BME280;43284;47.042;15.498;2023-02-01T00:04:02;97323.97;;;-3.19;85.49
57442;BME280;43284;47.042;15.498;2023-02-01T00:06:28;97317.16;;;-3.20;85.85
57442;BME280;43284;47.042;15.498;2023-02-01T00:08:53;97324.84;;;-3.20;85.67
57442;BME280;43284;47.042;15.498;2023-02-01T00:11:19;97323.97;;;-3.19;85.62
57442;BME280;43284;47.042;15.498;2023-02-01T00:13:45;97322.28;;;-3.20;85.15
57442;BME280;43284;47.042;15.498;2023-02-01T00:16:12;97313.75;;;-3.19;85.32
57442;BME280;43284;47.042;15.498;2023-02-01T00:18:37;97304.38;;;-3.20;84.99
57442;BME280;43284;47.042;15.498;2023-02-01T00:21:03;97320.53;;;-3.24;84.81
57442;BME280;43284;47.042;15.498;2023-02-01T00:23:31;97325.75;;;-3.12;84.58
57442;BME280;43284;47.042;15.498;2023-02-01T00:25:59;97324.06;;;-3.10;84.55
57442;BME280;43284;47.042;15.498;2023-02-01T00:28:25;97316.38;;;-3.15;84.62
57442;BME280;43284;47.042;15.498;2023-02-01T00:31:00;97323.16;;;-3.17;84.82
57442;BME280;43284;47.042;15.498;2023-02-01T00:33:26;97321.44;;;-3.21;84.99
57442;BME280;43284;47.042;15.498;2023-02-01T00:35:55;97324.81;;;-3.23;85.75
57442;BME280;43284;47.042;15.498;2023-02-01T00:38:21;97334.94;;;-3.34;85.80
57442;BME280;43284;47.042;15.498;2023-02-01T00:40:46;97334.94;;;-3.33;86.33
57442;BME280;43284;47.042;15.498;2023-02-01T00:43:12;97342.63;;;-3.34;86.10
57442;BME280;43284;47.042;15.498;2023-02-01T00:45:38;97340.00;;;-3.40;85.52
57442;BME280;43284;47.042;15.498;2023-02-01T00:48:04;97342.56;;;-3.39;85.96
57442;BME280;43284;47.042;15.498;2023-02-01T00:50:29;97347.81;;;-3.25;86.11
57442;BME280;43284;47.042;15.498;2023-02-01T00:52:55;97334.94;;;-3.36;86.77
57442;BME280;43284;47.042;15.498;2023-02-01T00:55:20;97329.78;;;-3.37;87.50
57442;BME280;43284;47.042;15.498;2023-02-01T00:57:45;97335.84;;;-3.26;86.14
57442;BME280;43284;47.042;15.498;2023-02-01T01:00:11;97324.81;;;-3.23;86.24
57442;BME280;43284;47.042;15.498;2023-02-01T01:02:36;97318.00;;;-3.23;85.70
57442;BME280;43284;47.042;15.498;2023-02-01T01:05:02;97332.47;;;-3.22;85.62
57442;BME280;43284;47.042;15.498;2023-02-01T01:07:27;97323.91;;;-3.28;86.06
57442;BME280;43284;47.042;15.498;2023-02-01T01:09:53;97313.63;;;-3.35;86.87
57442;BME280;43284;47.042;15.498;2023-02-01T01:12:18;97299.25;;;-3.25;85.52
57442;BME280;43284;47.042;15.498;2023-02-01T01:14:44;97293.31;;;-3.21;84.74
57442;BME280;43284;47.042;15.498;2023-02-01T01:17:10;97284.75;;;-3.24;84.48
57442;BME280;43284;47.042;15.498;2023-02-01T01:19:35;97279.69;;;-3.15;85.03
57442;BME280;43284;47.042;15.498;2023-02-01T01:22:01;97271.09;;;-3.26;86.11
57442;BME280;43284;47.042;15.498;2023-02-01T01:24:26;97251.50;;;-3.27;86.07
57442;BME280;43284;47.042;15.498;2023-02-01T01:26:51;97244.75;;;-3.21;85.22
57442;BME280;43284;47.042;15.498;2023-02-01T01:29:17;97257.41;;;-3.35;85.67
57442;BME280;43284;47.042;15.498;2023-02-01T01:31:42;97254.03;;;-3.32;85.88
57442;BME280;43284;47.042;15.498;2023-02-01T01:34:08;97253.13;;;-3.37;86.10
57442;BME280;43284;47.042;15.498;2023-02-01T01:36:33;97266.75;;;-3.40;86.22
57442;BME280;43284;47.042;15.498;2023-02-01T01:38:58;97262.47;;;-3.39;85.97
57442;BME280;43284;47.042;15.498;2023-02-01T01:41:25;97256.53;;;-3.40;86.66
57442;BME280;43284;47.042;15.498;2023-02-01T01:43:52;97263.34;;;-3.39;86.02
57442;BME280;43284;47.042;15.498;2023-02-01T01:46:19;97275.25;;;-3.39;85.07
57442;BME280;43284;47.042;15.498;2023-02-01T01:48:45;97257.38;;;-3.41;85.67
57442;BME280;43284;47.042;15.498;2023-02-01T01:51:11;97265.00;;;-3.45;86.04
57442;BME280;43284;47.042;15.498;2023-02-01T01:53:43;97261.56;;;-3.46;86.56
57442;BME280;43284;47.042;15.498;2023-02-01T01:56:10;97263.28;;;-3.46;86.39
57442;BME280;43284;47.042;15.498;2023-02-01T01:58:36;97261.59;;;-3.47;86.34
57442;BME280;43284;47.042;15.498;2023-02-01T02:01:02;97276.03;;;-3.49;86.52
57442;BME280;43284;47.042;15.498;2023-02-01T02:03:43;97273.47;;;-3.51;86.64
57442;BME280;43284;47.042;15.498;2023-02-01T02:06:44;97263.19;;;-3.57;86.34
57442;BME280;43284;47.042;15.498;2023-02-01T02:09:01;97270.06;;;-3.50;86.54
57442;BME280;43284;47.042;15.498;2023-02-01T02:11:26;97266.63;;;-3.52;85.35
57442;BME280;43284;47.042;15.498;2023-02-01T02:13:52;97268.34;;;-3.54;86.29
57442;BME280;43284;47.042;15.498;2023-02-01T02:29:29;97259.72;;;-3.64;87.00
57442;BME280;43284;47.042;15.498;2023-02-01T02:32:06;97266.56;;;-3.63;86.86
57442;BME280;43284;47.042;15.498;2023-02-01T02:37:26;97257.16;;;-3.64;86.85
57442;BME280;43284;47.042;15.498;2023-02-01T02:42:43;97262.28;;;-3.64;86.55
57442;BME280;43284;47.042;15.498;2023-02-01T02:45:35;97247.03;;;-3.55;86.50
57442;BME280;43284;47.042;15.498;2023-02-01T02:48:28;97229.88;;;-3.68;86.20
57442;BME280;43284;47.042;15.498;2023-02-01T02:50:58;97238.41;;;-3.69;87.14
57442;BME280;43284;47.042;15.498;2023-02-01T02:56:38;97241.75;;;-3.75;87.42
57442;BME280;43284;47.042;15.498;2023-02-01T02:59:24;97240.97;;;-3.69;86.99
57442;BME280;43284;47.042;15.498;2023-02-01T03:02:08;97232.47;;;-3.66;86.96
57442;BME280;43284;47.042;15.498;2023-02-01T03:04:53;97234.22;;;-3.59;86.67
57442;BME280;43284;47.042;15.498;2023-02-01T03:10:08;97236.66;;;-3.73;87.92
57442;BME280;43284;47.042;15.498;2023-02-01T03:12:36;97224.69;;;-3.79;87.91
57442;BME280;43284;47.042;15.498;2023-02-01T03:15:35;97234.91;;;-3.77;87.85
57442;BME280;43284;47.042;15.498;2023-02-01T03:18:02;97236.63;;;-3.78;87.69
57442;BME280;43284;47.042;15.498;2023-02-01T03:20:30;97226.47;;;-3.70;87.32
57442;BME280;43284;47.042;15.498;2023-02-01T03:22:57;97216.22;;;-3.75;87.25
57442;BME280;43284;47.042;15.498;2023-02-01T03:25:25;97235.94;;;-3.58;86.60
57442;BME280;43284;47.042;15.498;2023-02-01T03:27:57;97225.69;;;-3.61;86.93
57442;BME280;43284;47.042;15.498;2023-02-01T03:30:29;97210.41;;;-3.58;86.58
57442;BME280;43284;47.042;15.498;2023-02-01T03:32:56;97217.28;;;-3.46;85.56
57442;BME280;43284;47.042;15.498;2023-02-01T03:37:51;97220.59;;;-3.57;85.38
57442;BME280;43284;47.042;15.498;2023-02-01T03:40:18;97215.50;;;-3.55;85.71
57442;BME280;43284;47.042;15.498;2023-02-01T03:42:45;97224.03;;;-3.56;85.57
57442;BME280;43284;47.042;15.498;2023-02-01T03:45:16;97241.06;;;-3.58;85.08
57442;BME280;43284;47.042;15.498;2023-02-01T03:47:45;97240.22;;;-3.56;85.57
57442;BME280;43284;47.042;15.498;2023-02-01T03:50:30;97243.59;;;-3.60;85.91
57442;BME280;43284;47.042;15.498;2023-02-01T03:52:58;97237.59;;;-3.65;85.79
57442;BME280;43284;47.042;15.498;2023-02-01T03:55:25;97246.13;;;-3.60;85.68
57442;BME280;43284;47.042;15.498;2023-02-01T03:58:34;97252.09;;;-3.59;85.62
57442;BME280;43284;47.042;15.498;2023-02-01T04:00:43;97241.06;;;-3.58;85.58
57442;BME280;43284;47.042;15.498;2023-02-01T04:03:09;97254.78;;;-3.44;85.13
57442;BME280;43284;47.042;15.498;2023-02-01T04:05:35;97260.72;;;-3.49;85.52
57442;BME280;43284;47.042;15.498;2023-02-01T04:08:01;97278.56;;;-3.54;85.74
57442;BME280;43284;47.042;15.498;2023-02-01T04:10:27;97283.63;;;-3.57;86.37
57442;BME280;43284;47.042;15.498;2023-02-01T04:12:52;97282.69;;;-3.65;86.57
57442;BME280;43284;47.042;15.498;2023-02-01T04:15:17;97275.09;;;-3.59;86.42
57442;BME280;43284;47.042;15.498;2023-02-01T04:17:43;97264.81;;;-3.67;86.13
57442;BME280;43284;47.042;15.498;2023-02-01T04:20:08;97260.47;;;-3.74;86.55
57442;BME280;43284;47.042;15.498;2023-02-01T04:22:34;97258.78;;;-3.72;87.07
57442;BME280;43284;47.042;15.498;2023-02-01T04:25:00;97271.56;;;-3.74;86.83
57442;BME280;43284;47.042;15.498;2023-02-01T04:27:25;97271.72;;;-3.58;86.19
57442;BME280;43284;47.042;15.498;2023-02-01T04:29:51;97264.00;;;-3.63;86.46
57442;BME280;43284;47.042;15.498;2023-02-01T04:32:16;97260.56;;;-3.66;86.20
57442;BME280;43284;47.042;15.498;2023-02-01T04:34:42;97265.66;;;-3.66;86.33
57442;BME280;43284;47.042;15.498;2023-02-01T04:37:07;97261.44;;;-3.63;86.16
57442;BME280;43284;47.042;15.498;2023-02-01T04:39:33;97250.34;;;-3.66;86.01
57442;BME280;43284;47.042;15.498;2023-02-01T04:41:58;97235.81;;;-3.70;85.87
57442;BME280;43284;47.042;15.498;2023-02-01T04:44:23;97229.88;;;-3.68;85.86
57442;BME280;43284;47.042;15.498;2023-02-01T04:46:49;97241.78;;;-3.70;86.16
57442;BME280;43284;47.042;15.498;2023-02-01T04:49:14;97257.16;;;-3.67;85.89
57442;BME280;43284;47.042;15.498;2023-02-01T04:51:40;97265.69;;;-3.65;86.08
57442;BME280;43284;47.042;15.498;2023-02-01T04:54:06;97265.81;;;-3.51;86.45
57442;BME280;43284;47.042;15.498;2023-02-01T04:56:31;97265.81;;;-3.51;86.65
57442;BME280;43284;47.042;15.498;2023-02-01T04:58:57;97258.97;;;-3.54;86.92
57442;BME280;43284;47.042;15.498;2023-02-01T05:01:22;97247.00;;;-3.61;87.06
57442;BME280;43284;47.042;15.498;2023-02-01T05:03:49;97252.00;;;-3.70;86.64
57442;BME280;43284;47.042;15.498;2023-02-01T05:06:15;97262.19;;;-3.75;86.79
57442;BME280;43284;47.042;15.498;2023-02-01T05:08:40;97264.72;;;-3.75;87.48
57442;BME280;43284;47.042;15.498;2023-02-01T05:11:06;97266.44;;;-3.75;87.11
57442;BME280;43284;47.042;15.498;2023-02-01T05:13:31;97258.78;;;-3.75;86.71
57442;BME280;43284;47.042;15.498;2023-02-01T05:16:15;97245.13;;;-3.77;86.62
57442;BME280;43284;47.042;15.498;2023-02-01T05:18:41;97239.13;;;-3.81;86.67
57442;BME280;43284;47.042;15.498;2023-02-01T05:21:06;97235.72;;;-3.83;86.66
57442;BME280;43284;47.042;15.498;2023-02-01T05:23:32;97252.78;;;-3.77;86.45
57442;BME280;43284;47.042;15.498;2023-02-01T05:26:00;97254.53;;;-3.73;86.04
57442;BME280;43284;47.042;15.498;2023-02-01T05:28:27;97256.34;;;-3.60;86.18
57442;BME280;43284;47.042;15.498;2023-02-01T05:30:53;97252.81;;;-3.76;86.42
57442;BME280;43284;47.042;15.498;2023-02-01T05:33:18;97257.00;;;-3.84;86.35
57442;BME280;43284;47.042;15.498;2023-02-01T05:35:43;97259.53;;;-3.84;86.78
57442;BME280;43284;47.042;15.498;2023-02-01T05:38:09;97260.47;;;-3.76;86.85
57442;BME280;43284;47.042;15.498;2023-02-01T05:40:34;97269.16;;;-3.55;86.75
57442;BME280;43284;47.042;15.498;2023-02-01T05:42:59;97268.25;;;-3.63;86.88
57442;BME280;43284;47.042;15.498;2023-02-01T05:45:25;97270.75;;;-3.71;87.26
57442;BME280;43284;47.042;15.498;2023-02-01T05:47:50;97274.06;;;-3.77;87.35
57442;BME280;43284;47.042;15.498;2023-02-01T05:50:16;97274.13;;;-3.74;88.04
57442;BME280;43284;47.042;15.498;2023-02-01T05:52:41;97264.66;;;-3.81;88.05
57442;BME280;43284;47.042;15.498;2023-02-01T05:55:07;97262.13;;;-3.82;88.77
57442;BME280;43284;47.042;15.498;2023-02-01T05:57:32;97264.63;;;-3.85;88.17
57442;BME280;43284;47.042;15.498;2023-02-01T05:59:58;97264.69;;;-3.82;87.90
57442;BME280;43284;47.042;15.498;2023-02-01T06:02:23;97254.44;;;-3.87;88.09
57442;BME280;43284;47.042;15.498;2023-02-01T06:04:49;97247.59;;;-3.88;88.24
57442;BME280;43284;47.042;15.498;2023-02-01T06:07:15;97255.19;;;-3.94;88.28
57442;BME280;43284;47.042;15.498;2023-02-01T06:09:40;97275.75;;;-3.79;88.87
57442;BME280;43284;47.042;15.498;2023-02-01T06:12:06;97278.31;;;-3.79;88.54
57442;BME280;43284;47.042;15.498;2023-02-01T06:14:31;97264.66;;;-3.81;88.47
57442;BME280;43284;47.042;15.498;2023-02-01T06:16:57;97266.28;;;-3.92;88.66
57442;BME280;43284;47.042;15.498;2023-02-01T06:19:22;97273.06;;;-3.94;89.00
57442;BME280;43284;47.042;15.498;2023-02-01T06:21:48;97258.63;;;-3.94;89.29
57442;BME280;43284;47.042;15.498;2023-02-01T06:24:14;97275.63;;;-3.96;89.36
57442;BME280;43284;47.042;15.498;2023-02-01T06:26:39;97279.94;;;-3.88;89.60
57442;BME280;43284;47.042;15.498;2023-02-01T06:29:05;97266.34;;;-3.86;89.33
57442;BME280;43284;47.042;15.498;2023-02-01T06:31:32;97270.50;;;-3.94;88.76
57442;BME280;43284;47.042;15.498;2023-02-01T06:33:57;97273.03;;;-3.97;88.83
57442;BME280;43284;47.042;15.498;2023-02-01T06:36:22;97296.06;;;-3.89;89.09
57442;BME280;43284;47.042;15.498;2023-02-01T06:38:48;97284.19;;;-3.89;89.43
57442;BME280;43284;47.042;15.498;2023-02-01T06:41:13;97294.28;;;-3.98;89.13
57442;BME280;43284;47.042;15.498;2023-02-01T06:43:39;97296.03;;;-3.94;89.35
57442;BME280;43284;47.042;15.498;2023-02-01T06:46:09;97287.56;;;-3.93;89.70
57442;BME280;43284;47.042;15.498;2023-02-01T06:48:36;97296.13;;;-3.85;89.16
57442;BME280;43284;47.042;15.498;2023-02-01T06:51:01;97302.19;;;-3.78;88.79
57442;BME280;43284;47.042;15.498;2023-02-01T06:53:27;97294.59;;;-3.67;88.65
57442;BME280;43284;47.042;15.498;2023-02-01T06:55:56;97311.56;;;-3.76;88.86
57442;BME280;43284;47.042;15.498;2023-02-01T06:58:22;97319.34;;;-3.65;89.34
57442;BME280;43284;47.042;15.498;2023-02-01T07:00:48;97307.34;;;-3.67;89.60
57442;BME280;43284;47.042;15.498;2023-02-01T07:03:13;97304.81;;;-3.69;89.67
57442;BME280;43284;47.042;15.498;2023-02-01T07:05:39;97309.06;;;-3.68;89.75
57442;BME280;43284;47.042;15.498;2023-02-01T07:08:05;97315.94;;;-3.64;89.46
57442;BME280;43284;47.042;15.498;2023-02-01T07:10:30;97303.19;;;-3.61;89.59
57442;BME280;43284;47.042;15.498;2023-02-01T07:12:58;97297.28;;;-3.52;89.92
57442;BME280;43284;47.042;15.498;2023-02-01T07:15:24;97300.75;;;-3.48;89.17
57442;BME280;43284;47.042;15.498;2023-02-01T07:17:50;97308.44;;;-3.45;89.02
57442;BME280;43284;47.042;15.498;2023-02-01T07:20:15;97299.97;;;-3.40;89.53
57442;BME280;43284;47.042;15.498;2023-02-01T07:22:41;97294.03;;;-3.36;89.64
57442;BME280;43284;47.042;15.498;2023-02-01T07:25:06;97291.56;;;-3.25;89.20
57442;BME280;43284;47.042;15.498;2023-02-01T07:27:35;97285.63;;;-3.19;89.08
57442;BME280;43284;47.042;15.498;2023-02-01T07:30:00;97299.31;;;-3.16;88.84
57442;BME280;43284;47.042;15.498;2023-02-01T07:32:27;97290.00;;;-3.04;88.77
57442;BME280;43284;47.042;15.498;2023-02-01T07:34:53;97284.97;;;-2.97;88.30
57442;BME280;43284;47.042;15.498;2023-02-01T07:37:18;97283.31;;;-2.82;88.71
57442;BME280;43284;47.042;15.498;2023-02-01T07:39:44;97292.72;;;-2.81;88.44
57442;BME280;43284;47.042;15.498;2023-02-01T07:42:09;97297.97;;;-2.54;88.75
57442;BME280;43284;47.042;15.498;2023-02-01T07:44:34;97291.16;;;-2.58;88.38
57442;BME280;43284;47.042;15.498;2023-02-01T07:47:00;97298.88;;;-2.49;88.80
57442;BME280;43284;47.042;15.498;2023-02-01T07:49:25;97296.34;;;-2.42;88.16
57442;BME280;43284;47.042;15.498;2023-02-01T07:51:51;97304.03;;;-2.42;88.28
57442;BME280;43284;47.042;15.498;2023-02-01T07:54:16;97300.66;;;-2.35;89.15
57442;BME280;43284;47.042;15.498;2023-02-01T07:56:41;97303.28;;;-2.18;89.06
57442;BME280;43284;47.042;15.498;2023-02-01T07:59:07;97304.16;;;-2.12;89.19
57442;BME280;43284;47.042;15.498;2023-02-01T08:01:33;97304.19;;;-2.01;89.10
57442;BME280;43284;47.042;15.498;2023-02-01T08:04:01;97303.38;;;-1.89;88.95
57442;BME280;43284;47.042;15.498;2023-02-01T08:06:29;97303.44;;;-1.61;89.52
57442;BME280;43284;47.042;15.498;2023-02-01T08:08:56;97300.03;;;-0.90;87.01
57442;BME280;43284;47.042;15.498;2023-02-01T08:11:22;97311.16;;;-0.94;85.82
57442;BME280;43284;47.042;15.498;2023-02-01T08:13:47;97308.59;;;-0.92;85.79
57442;BME280;43284;47.042;15.498;2023-02-01T08:16:14;97306.88;;;-0.84;85.69
57442;BME280;43284;47.042;15.498;2023-02-01T08:18:40;97305.13;;;-0.68;86.31
57442;BME280;43284;47.042;15.498;2023-02-01T08:21:18;97293.13;;;-0.48;84.38
57442;BME280;43284;47.042;15.498;2023-02-01T08:23:45;97309.25;;;-0.10;82.51
57442;BME280;43284;47.042;15.498;2023-02-01T08:26:12;97300.69;;;-0.06;81.90
57442;BME280;43284;47.042;15.498;2023-02-01T08:28:39;97299.72;;;0.09;82.25
57442;BME280;43284;47.042;15.498;2023-02-01T08:31:06;97292.63;;;0.54;79.56
57442;BME280;43284;47.042;15.498;2023-02-01T08:33:32;97296.66;;;0.87;76.67
57442;BME280;43284;47.042;15.498;2023-02-01T08:35:59;97287.00;;;1.12;75.78
57442;BME280;43284;47.042;15.498;2023-02-01T08:38:25;97287.00;;;1.12;74.60
57442;BME280;43284;47.042;15.498;2023-02-01T08:40:50;97277.56;;;1.11;75.23
57442;BME280;43284;47.042;15.498;2023-02-01T08:43:16;97273.94;;;1.34;74.81
57442;BME280;43284;47.042;15.498;2023-02-01T08:45:41;97278.81;;;1.57;73.90
57442;BME280;43284;47.042;15.498;2023-02-01T08:48:06;97282.47;;;2.12;73.56
57442;BME280;43284;47.042;15.498;2023-02-01T08:50:32;97278.91;;;2.22;70.55
57442;BME280;43284;47.042;15.498;2023-02-01T08:52:57;97264.94;;;2.35;69.93
57442;BME280;43284;47.042;15.498;2023-02-01T08:55:23;97270.72;;;2.51;71.30
57442;BME280;43284;47.042;15.498;2023-02-01T08:57:48;97266.84;;;2.81;68.92
57442;BME280;43284;47.042;15.498;2023-02-01T09:00:15;97254.78;;;2.82;67.78
57442;BME280;43284;47.042;15.498;2023-02-01T09:02:41;97254.69;;;2.88;65.56
57442;BME280;43284;47.042;15.498;2023-02-01T09:05:07;97248.50;;;2.97;67.32
57442;BME280;43284;47.042;15.498;2023-02-01T09:07:33;97252.75;;;3.47;65.25
57442;BME280;43284;47.042;15.498;2023-02-01T09:09:59;97241.75;;;3.38;66.72
57442;BME280;43284;47.042;15.498;2023-02-01T09:12:29;97248.75;;;3.33;66.80
57442;BME280;43284;47.042;15.498;2023-02-01T09:14:55;97246.44;;;3.62;63.69
57442;BME280;43284;47.042;15.498;2023-02-01T09:17:21;97235.59;;;3.87;63.91
57442;BME280;43284;47.042;15.498;2023-02-01T09:19:46;97230.09;;;4.02;64.08
57442;BME280;43284;47.042;15.498;2023-02-01T09:22:12;97230.06;;;4.05;62.70
57442;BME280;43284;47.042;15.498;2023-02-01T09:24:37;97228.78;;;4.25;62.43
57442;BME280;43284;47.042;15.498;2023-02-01T09:27:03;97238.75;;;4.42;62.54
57442;BME280;43284;47.042;15.498;2023-02-01T09:29:28;97240.28;;;4.50;61.36
57442;BME280;43284;47.042;15.498;2023-02-01T09:31:53;97239.28;;;4.54;62.68
57442;BME280;43284;47.042;15.498;2023-02-01T09:34:19;97226.53;;;4.48;61.64
57442;BME280;43284;47.042;15.498;2023-02-01T09:36:44;97233.34;;;4.51;60.85
57442;BME280;43284;47.042;15.498;2023-02-01T09:39:10;97237.41;;;4.61;60.69
57442;BME280;43284;47.042;15.498;2023-02-01T09:41:39;97238.34;;;4.59;60.82
57442;BME280;43284;47.042;15.498;2023-02-01T09:46:54;97219.66;;;4.83;61.28
57442;BME280;43284;47.042;15.498;2023-02-01T09:49:26;97218.19;;;4.71;58.82
57442;BME280;43284;47.042;15.498;2023-02-01T09:51:52;97213.16;;;4.65;60.07
57442;BME280;43284;47.042;15.498;2023-02-01T09:54:20;97213.38;;;4.56;59.48
57442;BME280;43284;47.042;15.498;2023-02-01T09:59:23;97205.25;;;4.71;59.59
57442;BME280;43284;47.042;15.498;2023-02-01T10:01:49;97206.31;;;4.63;57.55
57442;BME280;43284;47.042;15.498;2023-02-01T10:04:14;97201.84;;;4.69;57.74
57442;BME280;43284;47.042;15.498;2023-02-01T10:17:20;97177.06;;;4.93;54.77
57442;BME280;43284;47.042;15.498;2023-02-01T10:22:47;97173.41;;;5.01;53.43
57442;BME280;43284;47.042;15.498;2023-02-01T10:27:45;97165.34;;;5.11;55.23
57442;BME280;43284;47.042;15.498;2023-02-01T10:32:45;97157.22;;;5.25;53.18
57442;BME280;43284;47.042;15.498;2023-02-01T10:35:16;97149.44;;;5.56;53.37
57442;BME280;43284;47.042;15.498;2023-02-01T10:37:43;97140.31;;;6.03;50.97
57442;BME280;43284;47.042;15.498;2023-02-01T10:40:15;97132.78;;;5.93;53.21
57442;BME280;43284;47.042;15.498;2023-02-01T10:42:42;97139.28;;;5.78;53.16
57442;BME280;43284;47.042;15.498;2023-02-01T10:45:13;97128.44;;;5.95;51.68
57442;BME280;43284;47.042;15.498;2023-02-01T10:47:40;97126.50;;;6.02;52.88
57442;BME280;43284;47.042;15.498;2023-02-01T10:53:05;97112.19;;;6.44;52.46
57442;BME280;43284;47.042;15.498;2023-02-01T10:55:26;97108.69;;;6.71;52.07
57442;BME280;43284;47.042;15.498;2023-02-01T10:57:56;97103.25;;;6.77;53.57
57442;BME280;43284;47.042;15.498;2023-02-01T11:00:22;97098.94;;;6.78;52.07
57442;BME280;43284;47.042;15.498;2023-02-01T11:02:47;97108.09;;;6.63;53.29
57442;BME280;43284;47.042;15.498;2023-02-01T11:05:15;97105.47;;;6.88;52.70
57442;BME280;43284;47.042;15.498;2023-02-01T11:07:46;97100.63;;;7.04;51.91
57442;BME280;43284;47.042;15.498;2023-02-01T11:12:56;97100.06;;;7.43;50.36
57442;BME280;43284;47.042;15.498;2023-02-01T11:15:23;97104.75;;;7.33;51.28
57442;BME280;43284;47.042;15.498;2023-02-01T11:17:51;97092.25;;;7.67;53.17
57442;BME280;43284;47.042;15.498;2023-02-01T11:20:20;97083.84;;;8.04;50.02
57442;BME280;43284;47.042;15.498;2023-02-01T11:22:55;97074.53;;;7.98;49.82
57442;BME280;43284;47.042;15.498;2023-02-01T11:25:21;97064.25;;;7.95;51.63
57442;BME280;43284;47.042;15.498;2023-02-01T11:27:48;97058.25;;;7.93;52.44
57442;BME280;43284;47.042;15.498;2023-02-01T11:30:17;97046.38;;;8.08;51.63
57442;BME280;43284;47.042;15.498;2023-02-01T11:32:46;97044.19;;;8.19;51.41
57442;BME280;43284;47.042;15.498;2023-02-01T11:35:13;97031.50;;;8.32;51.29
57442;BME280;43284;47.042;15.498;2023-02-01T11:37:40;97038.31;;;8.57;50.77
57442;BME280;43284;47.042;15.498;2023-02-01T11:45:27;97028.53;;;8.41;51.56
57442;BME280;43284;47.042;15.498;2023-02-01T11:47:53;97009.22;;;8.47;50.10
57442;BME280;43284;47.042;15.498;2023-02-01T11:50:22;97016.13;;;8.26;50.69
57442;BME280;43284;47.042;15.498;2023-02-01T12:00:50;96979.38;;;9.13;42.38
57442;BME280;43284;47.042;15.498;2023-02-01T12:03:39;96978.47;;;9.33;44.00
57442;BME280;43284;47.042;15.498;2023-02-01T12:18:50;96963.69;;;10.41;35.48
57442;BME280;43284;47.042;15.498;2023-02-01T12:21:28;96946.91;;;10.45;35.21
57442;BME280;43284;47.042;15.498;2023-02-01T12:32:20;96940.53;;;10.50;33.37
57442;BME280;43284;47.042;15.498;2023-02-01T12:34:54;96947.25;;;10.72;32.88
57442;BME280;43284;47.042;15.498;2023-02-01T12:37:40;96955.47;;;10.64;32.00
57442;BME280;43284;47.042;15.498;2023-02-01T12:43:04;96960.97;;;10.76;33.67
57442;BME280;43284;47.042;15.498;2023-02-01T12:45:37;96949.44;;;10.80;34.64
57442;BME280;43284;47.042;15.498;2023-02-01T12:50:39;96957.19;;;10.65;30.77
57442;BME280;43284;47.042;15.498;2023-02-01T12:55:38;96961.03;;;10.58;31.09
57442;BME280;43284;47.042;15.498;2023-02-01T12:58:09;96939.59;;;10.51;30.97
57442;BME280;43284;47.042;15.498;2023-02-01T13:03:11;96953.97;;;10.43;31.94
57442;BME280;43284;47.042;15.498;2023-02-01T13:08:38;96960.31;;;10.72;31.25
57442;BME280;43284;47.042;15.498;2023-02-01T13:11:51;96959.00;;;10.81;31.12
57442;BME280;43284;47.042;15.498;2023-02-01T13:16:34;96972.28;;;11.25;30.73
57442;BME280;43284;47.042;15.498;2023-02-01T13:21:39;96961.81;;;11.73;31.75
57442;BME280;43284;47.042;15.498;2023-02-01T13:24:13;96975.84;;;11.56;29.24
57442;BME280;43284;47.042;15.498;2023-02-01T13:26:45;96969.09;;;11.68;29.26
57442;BME280;43284;47.042;15.498;2023-02-01T13:29:11;96975.22;;;11.83;30.74
57442;BME280;43284;47.042;15.498;2023-02-01T13:36:42;96975.00;;;11.55;29.69
57442;BME280;43284;47.042;15.498;2023-02-01T13:42:02;97005.28;;;11.28;31.27
57442;BME280;43284;47.042;15.498;2023-02-01T13:44:32;96990.09;;;11.19;32.81
57442;BME280;43284;47.042;15.498;2023-02-01T13:47:00;96999.66;;;11.20;31.34
57442;BME280;43284;47.042;15.498;2023-02-01T13:49:28;97008.16;;;11.07;31.55
57442;BME280;43284;47.042;15.498;2023-02-01T13:51:55;97020.19;;;10.94;31.73
57442;BME280;43284;47.042;15.498;2023-02-01T13:54:26;97017.00;;;10.71;32.44
57442;BME280;43284;47.042;15.498;2023-02-01T13:56:52;97013.19;;;10.77;31.89
57442;BME280;43284;47.042;15.498;2023-02-01T13:59:35;97022.22;;;10.71;32.22
57442;BME280;43284;47.042;15.498;2023-02-01T14:04:49;97023.06;;;10.55;34.45
57442;BME280;43284;47.042;15.498;2023-02-01T14:07:17;97020.41;;;10.39;34.31
57442;BME280;43284;47.042;15.498;2023-02-01T14:09:43;97025.19;;;10.11;34.52
57442;BME280;43284;47.042;15.498;2023-02-01T14:14:52;97036.78;;;10.06;35.73
57442;BME280;43284;47.042;15.498;2023-02-01T14:17:37;97035.59;;;9.94;35.48
57442;BME280;43284;47.042;15.498;2023-02-01T14:22:47;97055.59;;;9.57;36.75
57442;BME280;43284;47.042;15.498;2023-02-01T14:25:18;97052.88;;;9.60;36.31
57442;BME280;43284;47.042;15.498;2023-02-01T14:27:43;97058.00;;;9.62;36.49
57442;BME280;43284;47.042;15.498;2023-02-01T14:30:14;97060.53;;;9.63;37.35
57442;BME280;43284;47.042;15.498;2023-02-01T14:32:40;97066.34;;;9.51;37.74
57442;BME280;43284;47.042;15.498;2023-02-01T14:35:17;97066.88;;;9.39;38.29
57442;BME280;43284;47.042;15.498;2023-02-01T14:37:42;97070.81;;;9.28;38.02
57442;BME280;43284;47.042;15.498;2023-02-01T14:42:47;97079.34;;;8.93;38.75
57442;BME280;43284;47.042;15.498;2023-02-01T14:47:53;97074.56;;;8.83;38.68
57442;BME280;43284;47.042;15.498;2023-02-01T14:57:59;97079.06;;;8.15;41.38
57442;BME280;43284;47.042;15.498;2023-02-01T15:00:28;97086.44;;;8.26;40.64
57442;BME280;43284;47.042;15.498;2023-02-01T15:02:54;97092.25;;;8.11;41.93
57442;BME280;43284;47.042;15.498;2023-02-01T15:05:26;97094.34;;;8.02;40.33
57442;BME280;43284;47.042;15.498;2023-02-01T15:07:54;97095.56;;;7.94;40.27
57442;BME280;43284;47.042;15.498;2023-02-01T15:10:20;97094.94;;;7.87;40.21
57442;BME280;43284;47.042;15.498;2023-02-01T15:12:46;97088.94;;;7.85;41.10
57442;BME280;43284;47.042;15.498;2023-02-01T15:15:23;97082.81;;;7.86;39.81